createdAt,value
2023-02-13T00:01:25.658Z,99.90
2023-02-13T00:03:53.165Z,99.90
2023-02-13T00:06:20.671Z,99.90
2023-02-13T00:08:48.243Z,99.90
2023-02-13T00:11:15.824Z,99.90
2023-02-13T00:13:43.307Z,99.90
2023-02-13T00:16:11.082Z,99.90
2023-02-13T00:18:40.372Z,99.90
2023-02-13T00:21:15.764Z,99.90
2023-02-13T00:23:43.817Z,99.90
2023-02-13T00:26:15.434Z,99.90
2023-02-13T00:28:46.193Z,99.90
2023-02-13T00:31:22.506Z,99.90
2023-02-13T00:33:50.965Z,99.90
2023-02-13T00:36:23.294Z,99.90
2023-02-13T00:38:53.782Z,99.90
2023-02-13T00:41:22.689Z,99.90
2023-02-13T00:43:52.178Z,99.90
2023-02-13T00:46:19.648Z,99.90
2023-02-13T00:48:47.351Z,99.90
2023-02-13T00:51:15.055Z,99.90
2023-02-13T00:53:42.563Z,99.90
2023-02-13T00:56:11.254Z,99.90
2023-02-13T00:58:39.030Z,99.90
2023-02-13T01:01:06.538Z,99.90
2023-02-13T01:03:35.242Z,99.90
2023-02-13T01:06:02.900Z,99.90
2023-02-13T01:08:30.487Z,99.90
2023-02-13T01:10:58.433Z,99.90
2023-02-13T01:13:26.175Z,99.90
2023-02-13T01:15:54.869Z,99.90
2023-02-13T01:18:22.686Z,99.90
2023-02-13T01:21:06.206Z,99.90
2023-02-13T01:23:36.759Z,99.90
2023-02-13T01:26:06.387Z,99.90
2023-02-13T01:28:34.850Z,99.90
2023-02-13T01:31:03.132Z,99.90
2023-02-13T01:33:30.837Z,99.90
2023-02-13T01:35:58.536Z,99.90
2023-02-13T01:38:26.257Z,99.90
2023-02-13T01:40:55.108Z,99.90
2023-02-13T01:43:25.105Z,99.90
2023-02-13T01:45:56.526Z,99.90
2023-02-13T01:48:26.458Z,99.90
2023-02-13T01:51:23.073Z,99.90
2023-02-13T01:53:57.917Z,99.90
2023-02-13T01:56:57.761Z,99.90
2023-02-13T01:59:37.558Z,99.90
2023-02-13T02:02:05.536Z,99.90
2023-02-13T02:04:34.663Z,99.90
2023-02-13T02:07:20.218Z,99.90
2023-02-13T02:09:51.190Z,99.90
2023-02-13T02:12:27.537Z,99.90
2023-02-13T02:14:58.137Z,99.90
2023-02-13T02:17:26.668Z,99.90
2023-02-13T02:20:31.586Z,99.90
2023-02-13T02:23:40.131Z,99.90
2023-02-13T02:26:50.616Z,99.90
2023-02-13T02:29:23.861Z,99.90
2023-02-13T02:32:24.117Z,99.90
2023-02-13T02:35:03.849Z,99.90
2023-02-13T02:37:52.995Z,99.90
2023-02-13T02:40:31.271Z,99.90
2023-02-13T02:43:01.509Z,99.90
2023-02-13T02:45:35.442Z,99.90
2023-02-13T02:48:58.151Z,99.90
2023-02-13T02:51:39.457Z,99.90
2023-02-13T02:54:41.359Z,99.90
2023-02-13T02:57:15.408Z,99.90
2023-02-13T03:00:07.812Z,99.90
2023-02-13T03:02:54.484Z,99.90
2023-02-13T03:05:49.785Z,99.90
2023-02-13T03:08:38.244Z,99.90
2023-02-13T03:11:24.981Z,99.90
2023-02-13T03:13:54.610Z,99.90
2023-02-13T03:16:43.694Z,99.90
2023-02-13T03:19:43.809Z,99.90
2023-02-13T03:22:43.210Z,99.90
2023-02-13T03:25:10.625Z,99.90
2023-02-13T03:28:14.532Z,99.90
2023-02-13T03:30:57.344Z,99.90
2023-02-13T03:33:52.017Z,99.90
2023-02-13T03:36:59.362Z,99.90
2023-02-13T03:40:02.232Z,99.90
2023-02-13T03:42:38.552Z,99.90
2023-02-13T03:45:48.726Z,99.90
2023-02-13T03:48:39.295Z,99.90
2023-02-13T03:51:08.630Z,99.90
2023-02-13T03:53:38.385Z,99.90
2023-02-13T03:56:27.112Z,99.90
2023-02-13T03:59:16.590Z,99.90
2023-02-13T04:01:55.766Z,99.90
2023-02-13T04:04:39.677Z,99.90
2023-02-13T04:07:12.243Z,99.90
2023-02-13T04:09:42.780Z,99.90
2023-02-13T04:12:18.891Z,99.90
2023-02-13T04:14:52.175Z,99.90
2023-02-13T04:17:27.265Z,99.90
2023-02-13T04:19:55.168Z,99.90
2023-02-13T04:22:22.626Z,99.90
2023-02-13T04:24:50.069Z,99.90
2023-02-13T04:27:18.281Z,99.90
2023-02-13T04:29:45.691Z,99.90
2023-02-13T04:32:14.940Z,99.90
2023-02-13T04:34:42.296Z,99.90
2023-02-13T04:37:09.733Z,99.90
2023-02-13T04:39:37.121Z,99.90
2023-02-13T04:42:04.586Z,99.90
2023-02-13T04:44:31.975Z,99.90
2023-02-13T04:46:59.395Z,99.90
2023-02-13T04:49:26.806Z,99.90
2023-02-13T04:51:54.192Z,99.90
2023-02-13T04:54:21.759Z,99.90
2023-02-13T04:56:49.168Z,99.90
2023-02-13T04:59:16.564Z,99.90
2023-02-13T05:01:43.978Z,99.90
2023-02-13T05:04:16.169Z,99.90
2023-02-13T05:06:43.690Z,99.90
2023-02-13T05:09:11.689Z,99.90
2023-02-13T05:11:42.840Z,99.90
2023-02-13T05:14:11.238Z,99.90
2023-02-13T05:16:38.599Z,99.90
2023-02-13T05:19:06.094Z,99.90
2023-02-13T05:21:52.273Z,99.90
2023-02-13T05:24:20.705Z,99.90
2023-02-13T05:26:48.178Z,99.90
2023-02-13T05:29:22.640Z,99.90
2023-02-13T05:31:55.268Z,99.90
2023-02-13T05:34:24.788Z,99.90
2023-02-13T05:36:52.239Z,99.90
2023-02-13T05:39:19.686Z,99.90
2023-02-13T05:41:48.294Z,99.90
2023-02-13T05:44:16.504Z,99.90
2023-02-13T05:46:45.011Z,99.90
2023-02-13T05:49:15.083Z,99.90
2023-02-13T05:51:43.200Z,99.90
2023-02-13T05:54:13.724Z,99.90
2023-02-13T05:56:41.469Z,99.90
2023-02-13T05:59:09.026Z,99.90
2023-02-13T06:01:37.885Z,99.90
2023-02-13T06:04:06.967Z,99.90
2023-02-13T06:06:36.871Z,99.90
2023-02-13T06:09:04.864Z,99.90
2023-02-13T06:11:32.255Z,99.90
2023-02-13T06:13:59.602Z,99.90
2023-02-13T06:16:27.147Z,99.90
2023-02-13T06:18:55.010Z,99.90
2023-02-13T06:21:22.690Z,99.90
2023-02-13T06:23:50.162Z,99.90
2023-02-13T06:26:17.619Z,99.90
2023-02-13T06:28:46.038Z,99.90
2023-02-13T06:31:13.523Z,99.90
2023-02-13T06:33:40.982Z,99.90
2023-02-13T06:36:08.411Z,99.90
2023-02-13T06:38:35.856Z,99.90
2023-02-13T06:41:03.419Z,99.90
2023-02-13T06:43:31.167Z,99.90
2023-02-13T06:45:58.893Z,99.90
2023-02-13T06:48:26.347Z,99.90
2023-02-13T06:50:53.870Z,99.90
2023-02-13T06:53:24.833Z,99.90
2023-02-13T06:55:53.677Z,99.90
2023-02-13T06:58:23.355Z,99.90
2023-02-13T07:00:52.085Z,99.90
2023-02-13T07:03:19.658Z,99.90
2023-02-13T07:05:47.276Z,99.90
2023-02-13T07:08:14.774Z,99.90
2023-02-13T07:10:42.363Z,99.90
2023-02-13T07:13:11.020Z,99.90
2023-02-13T07:15:38.601Z,99.90
2023-02-13T07:18:06.601Z,99.90
2023-02-13T07:20:34.111Z,99.90
2023-02-13T07:23:03.503Z,99.90
2023-02-13T07:25:32.262Z,99.90
2023-02-13T07:28:04.590Z,99.90
2023-02-13T07:30:33.461Z,99.90
2023-02-13T07:33:05.205Z,99.90
2023-02-13T07:35:33.043Z,99.90
2023-02-13T07:38:00.840Z,99.90
2023-02-13T07:40:28.654Z,99.90
2023-02-13T07:42:56.601Z,99.90
2023-02-13T07:45:23.978Z,99.90
2023-02-13T07:47:51.380Z,99.90
2023-02-13T07:50:18.860Z,99.90
2023-02-13T07:52:56.336Z,99.90
2023-02-13T07:55:24.194Z,98.50
2023-02-13T07:57:52.053Z,97.10
2023-02-13T08:00:20.065Z,95.80
2023-02-13T08:02:47.636Z,94.60
2023-02-13T08:05:15.259Z,93.70
2023-02-13T08:07:42.665Z,93.30
2023-02-13T08:10:32.501Z,92.50
2023-02-13T08:13:00.368Z,93.30
2023-02-13T08:15:27.865Z,93.30
2023-02-13T08:17:55.274Z,92.60
2023-02-13T08:20:24.041Z,92.00
2023-02-13T08:22:52.030Z,91.50
2023-02-13T08:25:19.800Z,91.00
2023-02-13T08:27:47.485Z,91.00
2023-02-13T08:30:15.425Z,91.30
2023-02-13T08:32:53.979Z,90.70
2023-02-13T08:35:22.964Z,89.60
2023-02-13T08:37:50.383Z,88.40
2023-02-13T08:40:18.047Z,87.50
2023-02-13T08:42:45.418Z,87.00
2023-02-13T08:45:12.985Z,86.10
2023-02-13T08:47:40.402Z,85.20
2023-02-13T08:50:08.495Z,84.10
2023-02-13T08:52:35.940Z,82.10
2023-02-13T08:55:03.875Z,81.30
2023-02-13T08:57:31.617Z,81.80
2023-02-13T08:59:59.042Z,82.30
2023-02-13T09:02:26.527Z,81.30
2023-02-13T09:04:54.066Z,83.00
2023-02-13T09:07:21.476Z,82.20
2023-02-13T09:09:48.903Z,83.00
2023-02-13T09:12:16.328Z,81.20
2023-02-13T09:14:43.731Z,80.20
2023-02-13T09:17:12.145Z,79.60
2023-02-13T09:19:39.560Z,77.50
2023-02-13T09:22:06.973Z,77.60
2023-02-13T09:24:34.360Z,78.20
2023-02-13T09:27:01.756Z,77.80
2023-02-13T09:29:31.756Z,77.30
2023-02-13T09:31:59.369Z,76.90
2023-02-13T09:34:27.295Z,77.10
2023-02-13T09:36:54.949Z,76.70
2023-02-13T09:39:22.347Z,77.80
2023-02-13T09:41:52.221Z,78.70
2023-02-13T09:44:34.853Z,77.60
2023-02-13T09:47:17.055Z,79.20
2023-02-13T09:50:25.677Z,79.50
2023-02-13T09:52:55.042Z,79.40
2023-02-13T09:56:11.352Z,78.30
2023-02-13T09:58:48.365Z,75.70
2023-02-13T10:01:34.014Z,75.30
2023-02-13T10:04:20.030Z,74.50
2023-02-13T10:06:58.188Z,73.50
2023-02-13T10:09:42.415Z,73.20
2023-02-13T10:12:15.994Z,73.40
2023-02-13T10:14:43.539Z,72.20
2023-02-13T10:17:45.212Z,71.80
2023-02-13T10:20:34.684Z,70.80
2023-02-13T10:23:40.652Z,71.50
2023-02-13T10:26:42.454Z,71.20
2023-02-13T10:29:43.152Z,71.90
2023-02-13T10:32:17.601Z,72.50
2023-02-13T10:34:46.555Z,71.80
2023-02-13T10:37:19.617Z,71.80
2023-02-13T10:39:50.061Z,73.10
2023-02-13T10:42:25.251Z,74.80
2023-02-13T10:44:57.879Z,76.10
2023-02-13T10:48:00.923Z,78.20
2023-02-13T10:50:39.482Z,81.00
2023-02-13T10:53:34.602Z,82.40
2023-02-13T10:56:05.007Z,84.30
2023-02-13T10:59:01.793Z,86.50
2023-02-13T11:01:52.295Z,87.50
2023-02-13T11:04:20.211Z,88.30
2023-02-13T11:07:00.469Z,89.50
2023-02-13T11:09:30.952Z,89.90
2023-02-13T11:11:58.366Z,90.20
2023-02-13T11:14:27.385Z,90.10
2023-02-13T11:16:54.836Z,90.30
2023-02-13T11:19:35.746Z,90.70
2023-02-13T11:22:13.613Z,91.20
2023-02-13T11:24:43.201Z,91.40
2023-02-13T11:27:13.959Z,91.80
2023-02-13T11:29:52.699Z,92.50
2023-02-13T11:32:26.668Z,92.90
2023-02-13T11:34:55.682Z,93.30
2023-02-13T11:37:27.109Z,93.40
2023-02-13T11:39:57.821Z,93.40
2023-02-13T11:42:32.364Z,94.00
2023-02-13T11:45:20.470Z,94.20
2023-02-13T11:47:48.188Z,94.60
2023-02-13T11:50:25.994Z,94.80
2023-02-13T11:53:04.704Z,94.50
2023-02-13T11:55:39.370Z,94.40
2023-02-13T11:58:33.451Z,94.90
2023-02-13T12:01:19.752Z,94.70
2023-02-13T12:04:16.182Z,94.50
2023-02-13T12:07:01.775Z,94.60
2023-02-13T12:09:31.318Z,94.70
2023-02-13T12:12:02.673Z,94.90
2023-02-13T12:14:37.244Z,94.60
2023-02-13T12:17:09.629Z,94.70
2023-02-13T12:19:43.032Z,94.80
2023-02-13T12:22:44.267Z,94.90
2023-02-13T12:25:53.726Z,94.90
2023-02-13T12:28:51.510Z,94.50
2023-02-13T12:31:36.233Z,94.70
2023-02-13T12:34:15.902Z,94.60
2023-02-13T12:36:58.318Z,94.70
2023-02-13T12:39:35.842Z,94.40
2023-02-13T12:42:18.005Z,94.50
2023-02-13T12:45:19.995Z,94.80
2023-02-13T12:48:00.906Z,94.70
2023-02-13T12:50:57.096Z,94.90
2023-02-13T12:53:32.058Z,95.10
2023-02-13T12:56:40.888Z,95.10
2023-02-13T12:59:22.715Z,95.20
2023-02-13T13:02:09.295Z,95.10
2023-02-13T13:05:14.375Z,95.30
2023-02-13T13:08:00.506Z,95.10
2023-02-13T13:10:27.859Z,95.20
2023-02-13T13:13:26.286Z,95.20
2023-02-13T13:16:17.079Z,95.30
2023-02-13T13:19:12.165Z,95.30
2023-02-13T13:22:07.057Z,95.10
2023-02-13T13:25:02.001Z,95.50
2023-02-13T13:27:46.198Z,95.30
2023-02-13T13:30:33.781Z,95.00
2023-02-13T13:33:12.589Z,95.10
2023-02-13T13:36:00.630Z,95.30
2023-02-13T13:38:52.821Z,95.10
2023-02-13T13:41:38.947Z,95.30
2023-02-13T13:44:16.914Z,95.30
2023-02-13T13:46:50.824Z,95.20
2023-02-13T13:49:23.998Z,95.40
2023-02-13T13:51:51.366Z,95.50
2023-02-13T13:54:22.346Z,95.50
2023-02-13T13:57:04.514Z,95.30
2023-02-13T13:59:34.719Z,95.20
2023-02-13T14:02:17.608Z,95.30
2023-02-13T14:05:23.533Z,95.20
2023-02-13T14:08:00.102Z,95.20
2023-02-13T14:10:30.391Z,95.40
2023-02-13T14:12:57.900Z,95.00
2023-02-13T14:15:49.917Z,95.10
2023-02-13T14:18:20.438Z,95.10
2023-02-13T14:20:50.897Z,95.20
2023-02-13T14:23:41.468Z,95.20
2023-02-13T14:26:17.650Z,95.40
2023-02-13T14:28:50.558Z,95.40
2023-02-13T14:31:27.520Z,95.40
2023-02-13T14:33:59.102Z,95.70
2023-02-13T14:36:35.270Z,95.70
2023-02-13T14:39:28.662Z,95.80
2023-02-13T14:42:00.531Z,95.90
2023-02-13T14:44:39.620Z,95.80
2023-02-13T14:47:36.179Z,95.90
2023-02-13T14:50:07.101Z,96.00
2023-02-13T14:52:45.769Z,95.50
2023-02-13T14:55:17.079Z,95.60
2023-02-13T14:57:52.237Z,95.80
2023-02-13T15:00:32.153Z,96.10
2023-02-13T15:03:05.954Z,96.10
2023-02-13T15:05:35.600Z,96.10
2023-02-13T15:08:14.262Z,96.30
2023-02-13T15:10:48.195Z,96.70
2023-02-13T15:13:20.862Z,96.90
2023-02-13T15:16:09.585Z,96.80
2023-02-13T15:18:45.597Z,96.60
2023-02-13T15:21:16.390Z,96.50
2023-02-13T15:23:49.022Z,96.90
2023-02-13T15:26:26.330Z,97.10
2023-02-13T15:29:27.811Z,97.30
2023-02-13T15:31:57.465Z,97.30
2023-02-13T15:34:29.145Z,97.40
2023-02-13T15:36:56.892Z,97.40
2023-02-13T15:39:31.961Z,97.70
2023-02-13T15:42:01.450Z,97.80
2023-02-13T15:44:32.965Z,98.00
2023-02-13T15:47:07.555Z,98.20
2023-02-13T15:49:39.776Z,98.40
2023-02-13T15:52:14.912Z,98.70
2023-02-13T15:54:53.319Z,98.80
2023-02-13T15:57:21.846Z,98.90
2023-02-13T15:59:50.319Z,99.10
2023-02-13T16:02:36.307Z,99.40
2023-02-13T16:05:04.063Z,99.50
2023-02-13T16:07:45.659Z,99.90
2023-02-13T16:10:23.804Z,99.90
2023-02-13T16:12:51.356Z,99.90
2023-02-13T16:15:21.601Z,99.90
2023-02-13T16:17:49.563Z,99.90
2023-02-13T16:20:19.185Z,99.90
2023-02-13T16:23:01.253Z,99.90
2023-02-13T16:25:36.429Z,99.90
2023-02-13T16:28:18.399Z,99.90
2023-02-13T16:30:52.509Z,99.90
2023-02-13T16:33:28.054Z,99.90
2023-02-13T16:36:00.630Z,99.90
2023-02-13T16:38:30.870Z,99.90
2023-02-13T16:41:03.109Z,99.90
2023-02-13T16:43:41.033Z,99.90
2023-02-13T16:46:15.683Z,99.90
2023-02-13T16:48:45.678Z,99.90
2023-02-13T16:51:13.443Z,99.90
2023-02-13T16:53:41.169Z,99.90
2023-02-13T16:56:11.118Z,99.90
2023-02-13T16:58:38.559Z,99.90
2023-02-13T17:01:06.189Z,99.90
2023-02-13T17:03:33.622Z,99.90
2023-02-13T17:06:02.797Z,99.90
2023-02-13T17:08:32.329Z,99.90
2023-02-13T17:11:07.977Z,99.90
2023-02-13T17:13:35.402Z,99.90
2023-02-13T17:16:02.859Z,99.90
2023-02-13T17:18:30.322Z,99.90
2023-02-13T17:20:58.044Z,99.90
2023-02-13T17:23:26.048Z,99.90
2023-02-13T17:25:54.171Z,99.90
2023-02-13T17:28:29.123Z,99.90
2023-02-13T17:30:58.476Z,99.90
2023-02-13T17:33:28.592Z,99.90
2023-02-13T17:35:56.200Z,99.90
2023-02-13T17:38:23.825Z,99.90
2023-02-13T17:40:51.916Z,99.90
2023-02-13T17:43:20.681Z,99.90
2023-02-13T17:45:49.757Z,99.90
2023-02-13T17:48:17.878Z,99.90
2023-02-13T17:50:45.264Z,99.90
2023-02-13T17:53:24.802Z,99.90
2023-02-13T17:55:52.613Z,99.90
2023-02-13T17:58:20.044Z,99.90
2023-02-13T18:00:47.648Z,99.90
2023-02-13T18:03:15.143Z,99.90
2023-02-13T18:05:42.569Z,99.90
2023-02-13T18:08:10.078Z,99.90
2023-02-13T18:10:39.564Z,99.90
2023-02-13T18:13:07.278Z,99.90
2023-02-13T18:15:38.786Z,99.90
2023-02-13T18:18:06.245Z,99.90
2023-02-13T18:20:34.184Z,99.90
2023-02-13T18:23:01.842Z,99.90
2023-02-13T18:25:29.338Z,99.90
2023-02-13T18:27:56.735Z,99.90
2023-02-13T18:30:24.322Z,99.90
2023-02-13T18:32:53.817Z,99.90
2023-02-13T18:35:22.412Z,99.90
2023-02-13T18:37:50.430Z,99.90
2023-02-13T18:40:17.983Z,99.90
2023-02-13T18:42:45.507Z,99.90
2023-02-13T18:45:12.979Z,99.90
2023-02-13T18:47:40.379Z,99.90
2023-02-13T18:50:09.090Z,99.90
2023-02-13T18:52:36.519Z,99.90
2023-02-13T18:55:06.989Z,99.90
2023-02-13T18:57:34.683Z,99.90
2023-02-13T19:00:05.066Z,99.90
2023-02-13T19:02:33.430Z,99.90
2023-02-13T19:05:01.464Z,99.90
2023-02-13T19:07:29.095Z,99.90
2023-02-13T19:09:56.474Z,99.90
2023-02-13T19:12:23.916Z,99.90
2023-02-13T19:14:51.392Z,99.90
2023-02-13T19:17:18.823Z,99.90
2023-02-13T19:19:48.838Z,99.90
2023-02-13T19:22:16.600Z,99.90
2023-02-13T19:24:44.193Z,99.90
2023-02-13T19:27:11.633Z,99.90
2023-02-13T19:29:39.217Z,99.90
2023-02-13T19:32:06.712Z,99.90
2023-02-13T19:34:34.243Z,99.90
2023-02-13T19:37:01.941Z,99.90
2023-02-13T19:39:29.358Z,99.90
2023-02-13T19:41:56.897Z,99.90
2023-02-13T19:44:24.384Z,99.90
2023-02-13T19:46:51.830Z,99.90
2023-02-13T19:49:22.265Z,99.90
2023-02-13T19:51:50.345Z,99.90
2023-02-13T19:54:17.744Z,99.90
2023-02-13T19:56:45.248Z,99.90
2023-02-13T19:59:13.545Z,99.90
2023-02-13T20:01:42.907Z,99.90
2023-02-13T20:04:12.054Z,99.90
2023-02-13T20:06:39.877Z,99.90
2023-02-13T20:09:10.372Z,99.90
2023-02-13T20:11:42.050Z,99.90
2023-02-13T20:14:14.762Z,99.90
2023-02-13T20:16:46.487Z,99.90
2023-02-13T20:19:14.187Z,99.90
2023-02-13T20:21:42.455Z,99.90
2023-02-13T20:24:11.596Z,99.90
2023-02-13T20:26:39.806Z,99.90
2023-02-13T20:29:08.084Z,99.90
2023-02-13T20:31:36.065Z,99.90
2023-02-13T20:34:06.157Z,99.90
2023-02-13T20:36:34.079Z,99.90
2023-02-13T20:39:04.194Z,99.90
2023-02-13T20:41:33.583Z,99.90
2023-02-13T20:44:05.136Z,99.90
2023-02-13T20:46:35.555Z,99.90
2023-02-13T20:49:03.047Z,99.90
2023-02-13T20:51:30.952Z,99.90
2023-02-13T20:53:59.946Z,99.90
2023-02-13T20:56:28.433Z,99.90
2023-02-13T20:58:58.247Z,99.90
2023-02-13T21:01:31.221Z,99.90
2023-02-13T21:03:58.840Z,99.90
2023-02-13T21:06:28.868Z,99.90
2023-02-13T21:08:56.608Z,99.90
2023-02-13T21:11:24.300Z,99.90
2023-02-13T21:13:51.887Z,99.90
2023-02-13T21:16:22.568Z,99.90
2023-02-13T21:18:52.445Z,99.90
2023-02-13T21:21:21.683Z,99.90
2023-02-13T21:23:52.377Z,99.90
2023-02-13T21:26:19.988Z,99.90
2023-02-13T21:28:48.697Z,99.90
2023-02-13T21:31:19.001Z,99.90
2023-02-13T21:33:46.791Z,99.90
2023-02-13T21:36:14.365Z,99.90
2023-02-13T21:38:41.996Z,99.90
2023-02-13T21:41:12.297Z,99.90
2023-02-13T21:43:42.178Z,99.90
2023-02-13T21:46:11.820Z,99.90
2023-02-13T21:48:40.705Z,99.90
2023-02-13T21:51:12.978Z,99.90
2023-02-13T21:53:40.919Z,99.90
2023-02-13T21:56:11.934Z,99.90
2023-02-13T21:58:40.998Z,99.90
2023-02-13T22:01:26.157Z,99.90
2023-02-13T22:03:59.794Z,99.90
2023-02-13T22:06:30.375Z,99.90
2023-02-13T22:08:59.662Z,99.90
2023-02-13T22:11:27.663Z,99.90
2023-02-13T22:14:02.439Z,99.90
2023-02-13T22:16:31.497Z,99.90
2023-02-13T22:18:59.527Z,99.90
2023-02-13T22:21:29.894Z,99.90
2023-02-13T22:23:57.871Z,99.90
2023-02-13T22:26:28.069Z,99.90
2023-02-13T22:28:59.022Z,99.90
2023-02-13T22:31:26.539Z,99.90
2023-02-13T22:34:03.357Z,99.90
2023-02-13T22:36:39.054Z,99.90
2023-02-13T22:39:08.349Z,99.90
2023-02-13T22:41:35.874Z,99.90
2023-02-13T22:44:03.568Z,99.90
2023-02-13T22:46:33.162Z,99.90
2023-02-13T22:49:01.006Z,99.90
2023-02-13T22:51:34.607Z,99.90
2023-02-13T22:54:02.658Z,99.90
2023-02-13T22:56:31.012Z,99.90
2023-02-13T22:58:59.392Z,99.90
2023-02-13T23:01:28.938Z,99.90
2023-02-13T23:03:57.283Z,99.90
2023-02-13T23:06:25.284Z,99.90
2023-02-13T23:08:53.744Z,99.90
2023-02-13T23:11:42.975Z,99.90
2023-02-13T23:14:11.409Z,99.90
2023-02-13T23:16:58.321Z,99.90
2023-02-13T23:19:27.456Z,99.90
2023-02-13T23:21:55.230Z,99.90
2023-02-13T23:24:22.728Z,99.90
2023-02-13T23:26:50.108Z,99.90
2023-02-13T23:29:17.572Z,99.90
2023-02-13T23:31:45.156Z,99.90
2023-02-13T23:34:12.757Z,99.90
2023-02-13T23:36:40.168Z,99.90
2023-02-13T23:39:07.648Z,99.90
2023-02-13T23:41:35.060Z,99.90
2023-02-13T23:44:02.545Z,99.90
2023-02-13T23:46:30.012Z,99.90
2023-02-13T23:48:57.763Z,99.90
2023-02-13T23:51:25.721Z,99.90
2023-02-13T23:53:56.060Z,99.90
2023-02-13T23:56:24.983Z,99.90
2023-02-13T23:58:53.247Z,99.90
